Time;durP1;ratioP1;P1;durP2;ratioP2;P2;SDS_P1;SDS_P2;PMS_P1;PMS_P2;Temp;Humidity;BMP_temperature;BMP_pressure;BME280_temperature;BME280_humidity;BME280_pressure;Samples;Min_cycle;Max_cycle;Signal;HPM_P1;HPM_P2
2021/06/18 00:01:46;;;;;;;4.75;4.35;;;;;;;26.76;46.63;99814.94;10444719;28;20099;-72
2021/06/18 00:06:47;;;;;;;5.60;4.88;;;;;;;26.70;46.92;99802.25;10453205;28;20129;-72
2021/06/18 00:11:49;;;;;;;4.95;4.53;;;;;;;26.69;47.16;99797.03;10448748;28;20099;-73
2021/06/18 00:16:50;;;;;;;5.63;5.13;;;;;;;26.64;46.99;99803.19;10452214;28;20103;-72
2021/06/18 00:21:51;;;;;;;5.32;4.57;;;;;;;26.55;47.16;99789.06;10465155;28;20049;-73
2021/06/18 00:26:53;;;;;;;4.97;4.47;;;;;;;26.50;47.54;99797.16;10462286;28;20476;-73
2021/06/18 00:31:54;;;;;;;5.63;5.18;;;;;;;26.49;47.60;99795.50;10466955;28;20068;-74
2021/06/18 00:36:56;;;;;;;6.60;5.25;;;;;;;26.45;48.85;99800.63;10499259;28;20514;-73
2021/06/18 00:41:57;;;;;;;5.38;4.93;;;;;;;26.38;48.96;99794.44;10462227;28;20106;-74
2021/06/18 00:46:59;;;;;;;5.82;5.28;;;;;;;26.35;49.02;99797.66;10461006;28;20139;-73
2021/06/18 00:52:01;;;;;;;5.57;5.07;;;;;;;26.32;49.44;99795.41;10458781;28;20094;-74
2021/06/18 00:57:03;;;;;;;5.40;4.90;;;;;;;26.29;49.74;99782.25;10461255;28;20131;-73
2021/06/18 01:02:04;;;;;;;6.35;5.70;;;;;;;26.21;49.38;99788.91;10456311;28;20061;-75
2021/06/18 01:07:16;;;;;;;5.70;5.05;;;;;;;26.14;49.77;99790.06;10457624;28;20495;-73
2021/06/18 01:12:20;;;;;;;5.75;5.15;;;;;;;26.12;50.51;99795.75;10460369;28;20143;-71
2021/06/18 01:17:28;;;;;;;6.13;5.53;;;;;;;26.06;50.03;99796.69;10460288;28;20503;-73
2021/06/18 01:22:32;;;;;;;5.85;5.18;;;;;;;25.99;50.13;99796.84;10459802;28;20073;-74
2021/06/18 01:27:59;;;;;;;6.22;5.63;;;;;;;25.94;50.38;99800.25;10464060;28;20080;-74
2021/06/18 01:33:08;;;;;;;7.07;4.97;;;;;;;25.87;50.07;99799.53;10456423;28;20690;-74
2021/06/18 01:38:11;;;;;;;5.03;4.55;;;;;;;25.82;49.20;99790.38;10459374;28;20168;-74
2021/06/18 01:43:14;;;;;;;5.15;4.65;;;;;;;25.74;49.07;99788.84;10461249;28;20146;-72
2021/06/18 01:48:20;;;;;;;5.28;4.32;;;;;;;25.62;50.06;99791.53;10466101;28;20072;-72
2021/06/18 01:53:24;;;;;;;5.53;5.05;;;;;;;25.54;50.70;99794.63;10452237;28;20067;-72
2021/06/18 01:58:26;;;;;;;5.65;5.15;;;;;;;25.50;51.68;99796.13;10460003;28;20060;-72
2021/06/18 02:03:29;;;;;;;5.88;5.32;;;;;;;25.43;51.33;99787.22;10458796;28;20068;-73
2021/06/18 02:08:31;;;;;;;6.00;5.60;;;;;;;25.31;51.71;99774.41;10457612;28;20135;-74
2021/06/18 02:13:34;;;;;;;5.53;5.13;;;;;;;25.36;52.05;99788.16;10450950;28;20139;-73
2021/06/18 02:18:37;;;;;;;5.32;4.82;;;;;;;25.29;51.74;99781.94;10449485;28;20124;-74
2021/06/18 02:23:39;;;;;;;;;;;;;;;25.23;51.85;99782.88;10449091;28;20130;-71
2021/06/18 02:28:41;;;;;;;5.37;4.90;;;;;;;25.13;51.83;99771.69;10462470;28;20442;-73
2021/06/18 02:33:42;;;;;;;5.30;4.90;;;;;;;25.05;51.70;99770.13;10450357;28;20068;-73
2021/06/18 02:38:45;;;;;;;5.43;4.95;;;;;;;25.00;52.02;99778.19;10455379;28;20057;-73
2021/06/18 02:43:46;;;;;;;7.10;4.78;;;;;;;24.89;52.39;99771.59;10449521;28;20048;-72
2021/06/18 02:48:51;;;;;;;7.60;5.82;;;;;;;24.80;52.64;99762.94;10451521;28;20149;-73
2021/06/18 02:54:30;;;;;;;5.50;5.00;;;;;;;24.75;53.10;99776.38;10462547;28;20068;-73
2021/06/18 02:59:40;;;;;;;7.50;5.53;;;;;;;24.70;53.10;99774.34;10444692;28;20066;-71
2021/06/18 03:04:44;;;;;;;5.22;4.88;;;;;;;24.70;52.99;99782.50;10456675;28;20124;-72
2021/06/18 03:09:51;;;;;;;6.22;4.82;;;;;;;24.66;52.54;99789.47;10477065;28;20044;-73
2021/06/18 03:15:02;;;;;;;5.95;5.28;;;;;;;24.52;52.82;99790.66;10467320;28;20040;-70
2021/06/18 03:20:08;;;;;;;5.32;4.88;;;;;;;24.49;52.93;99788.41;10448915;28;20507;-73
2021/06/18 03:25:11;;;;;;;5.90;5.35;;;;;;;24.42;52.52;99787.63;10473120;28;20499;-73
2021/06/18 03:30:13;;;;;;;5.60;5.10;;;;;;;24.42;52.78;99804.78;10467642;28;20422;-73
2021/06/18 03:35:19;;;;;;;5.25;4.85;;;;;;;24.44;53.18;99812.72;10465394;28;20071;-73
2021/06/18 03:40:21;;;;;;;6.03;5.53;;;;;;;24.40;52.71;99817.78;10466048;28;20040;-74
2021/06/18 03:45:23;;;;;;;5.63;5.23;;;;;;;24.43;52.93;99821.94;10470387;28;20045;-73
2021/06/18 03:50:26;;;;;;;7.95;5.28;;;;;;;24.41;52.99;99807.72;10471726;28;20051;-72
2021/06/18 03:55:28;;;;;;;5.75;5.32;;;;;;;24.35;52.94;99804.84;10477023;28;20048;-72
2021/06/18 04:00:35;;;;;;;8.15;4.85;;;;;;;24.28;53.26;99806.81;10485618;28;20056;-73
2021/06/18 04:05:39;;;;;;;5.10;4.70;;;;;;;24.39;53.63;99821.53;10502201;28;20044;-75
2021/06/18 04:10:43;;;;;;;5.63;5.15;;;;;;;24.45;54.12;99822.53;10484665;28;20045;-72
2021/06/18 04:15:47;;;;;;;6.57;4.72;;;;;;;24.42;54.54;99821.09;10460459;28;20067;-72
2021/06/18 04:20:50;;;;;;;6.97;5.75;;;;;;;24.42;54.37;99817.56;10474645;28;20052;-73
2021/06/18 04:25:52;;;;;;;7.22;6.55;;;;;;;24.32;54.54;99805.31;10464991;28;20126;-72
2021/06/18 04:30:53;;;;;;;7.20;6.55;;;;;;;24.28;54.66;99812.25;10455432;28;20065;-73
2021/06/18 04:35:55;;;;;;;7.97;6.43;;;;;;;24.28;54.92;99809.53;10475380;28;20060;-73
2021/06/18 04:40:57;;;;;;;9.80;8.93;;;;;;;24.32;55.05;99821.63;10472643;28;20041;-71
2021/06/18 04:45:58;;;;;;;7.82;6.38;;;;;;;24.31;54.82;99830.00;10461382;28;20551;-73
2021/06/18 04:51:00;;;;;;;7.65;5.82;;;;;;;24.24;55.22;99879.00;10468708;28;20455;-73
2021/06/18 04:56:02;;;;;;;7.45;6.75;;;;;;;24.23;54.51;99857.47;10461197;28;20674;-73
2021/06/18 05:01:05;;;;;;;8.23;7.25;;;;;;;24.30;54.71;99861.78;10465018;28;20051;-74
2021/06/18 05:06:06;;;;;;;7.13;6.20;;;;;;;24.27;54.45;99856.81;10462806;28;20064;-72
2021/06/18 05:11:08;;;;;;;8.60;7.35;;;;;;;24.34;54.31;99863.03;10446537;28;20110;-72
2021/06/18 05:16:09;;;;;;;10.25;6.93;;;;;;;24.46;54.27;99868.56;10453353;28;20144;-71
2021/06/18 05:21:11;;;;;;;7.00;6.30;;;;;;;24.51;54.21;99881.47;10460090;28;20518;-74
2021/06/18 05:26:12;;;;;;;11.40;8.52;;;;;;;24.57;54.10;99880.59;10455045;28;20041;-75
2021/06/18 05:31:14;;;;;;;7.25;6.60;;;;;;;24.66;54.07;99860.22;10457520;28;20049;-73
2021/06/18 05:36:16;;;;;;;7.30;6.60;;;;;;;24.81;54.03;99854.41;10461677;28;20044;-72
2021/06/18 05:41:18;;;;;;;7.43;6.30;;;;;;;24.80;54.01;99860.06;10453635;28;20076;-73
2021/06/18 05:46:19;;;;;;;7.40;6.68;;;;;;;24.92;53.12;99879.19;10452435;28;20075;-74
2021/06/18 05:51:20;;;;;;;9.85;6.60;;;;;;;24.96;53.45;99874.97;10453580;28;20049;-72
2021/06/18 05:56:22;;;;;;;7.95;7.00;;;;;;;24.95;53.46;99879.59;10466450;28;20078;-73
2021/06/18 06:01:24;;;;;;;9.65;7.13;;;;;;;25.08;53.39;99873.13;10450597;28;20049;-72
2021/06/18 06:06:33;;;;;;;7.85;7.10;;;;;;;25.28;52.85;99888.41;10458634;28;20048;-73
2021/06/18 06:11:35;;;;;;;7.63;6.90;;;;;;;25.37;52.34;99882.44;10473781;28;20060;-72
2021/06/18 06:16:37;;;;;;;6.85;5.72;;;;;;;25.54;51.83;99877.19;10477415;28;20106;-72
2021/06/18 06:21:40;;;;;;;6.60;5.87;;;;;;;25.66;51.36;99868.22;10475168;28;20074;-74
2021/06/18 06:26:42;;;;;;;6.30;5.60;;;;;;;25.74;51.59;99857.78;10466971;28;20052;-73
2021/06/18 06:31:45;;;;;;;31.15;10.07;;;;;;;25.98;50.88;99855.13;10467636;28;20094;-74
2021/06/18 06:36:46;;;;;;;9.47;6.57;;;;;;;26.15;50.51;99854.47;10469975;28;20216;-74
2021/06/18 06:41:47;;;;;;;12.48;6.72;;;;;;;26.20;50.19;99857.31;10462294;28;20143;-74
2021/06/18 06:46:49;;;;;;;8.88;6.50;;;;;;;26.42;49.98;99882.94;10473505;28;20123;-73
2021/06/18 06:51:51;;;;;;;9.18;6.72;;;;;;;26.38;49.90;99887.22;10469383;28;20123;-74
2021/06/18 06:56:54;;;;;;;7.90;6.28;;;;;;;26.52;49.45;99884.25;10468134;28;20375;-74
2021/06/18 07:01:55;;;;;;;7.22;6.30;;;;;;;26.62;48.92;99879.03;10468365;28;20051;-74
2021/06/18 07:06:57;;;;;;;15.38;6.82;;;;;;;26.83;48.41;99887.69;10470480;28;20044;-76
2021/06/18 07:11:58;;;;;;;35.15;9.25;;;;;;;26.95;47.35;99888.50;10473411;28;20041;-73
2021/06/18 07:17:00;;;;;;;6.65;6.00;;;;;;;27.12;47.93;99886.66;10480358;28;20044;-74
2021/06/18 07:22:02;;;;;;;6.45;5.50;;;;;;;27.48;47.01;99881.94;10478384;28;20106;-74
2021/06/18 07:27:04;;;;;;;8.73;6.50;;;;;;;27.52;47.05;99874.91;10479545;28;20494;-75
2021/06/18 07:32:05;;;;;;;8.15;5.93;;;;;;;27.67;47.41;99881.75;10478490;28;20070;-73
2021/06/18 07:37:07;;;;;;;6.17;5.10;;;;;;;27.73;46.35;99885.38;10487827;28;20059;-72
2021/06/18 07:42:20;;;;;;;6.65;5.78;;;;;;;27.81;45.41;99882.25;10487821;28;20457;-75
2021/06/18 07:47:23;;;;;;;6.18;5.68;;;;;;;27.91;45.24;99882.44;10484555;28;20450;-76
2021/06/18 07:52:25;;;;;;;;;;;;;;;28.16;44.89;99887.50;10489396;28;20074;-75
2021/06/18 07:57:26;;;;;;;9.07;6.20;;;;;;;28.37;43.89;99875.00;10492338;28;19976;-74
2021/06/18 08:02:28;;;;;;;7.13;6.05;;;;;;;28.44;44.67;99871.25;10488172;28;20101;-73
2021/06/18 08:07:29;;;;;;;6.13;5.53;;;;;;;28.72;44.03;99865.66;10481195;28;20754;-74
2021/06/18 08:12:30;;;;;;;6.50;5.18;;;;;;;28.94;43.66;99873.06;10482082;28;20157;-75
2021/06/18 08:17:33;;;;;;;6.30;5.57;;;;;;;29.09;42.86;99864.19;10479251;28;20131;-74
2021/06/18 08:22:34;;;;;;;6.57;6.05;;;;;;;29.51;42.49;99873.75;10481182;28;20056;-73
2021/06/18 08:27:36;;;;;;;6.60;5.10;;;;;;;29.59;42.30;99862.28;10477767;28;20094;-74
2021/06/18 08:32:37;;;;;;;6.40;5.90;;;;;;;29.79;40.27;99858.94;10475325;28;20102;-73
2021/06/18 08:37:39;;;;;;;5.67;5.17;;;;;;;29.77;40.68;99853.72;10494017;28;20071;-75
2021/06/18 08:42:41;;;;;;;5.70;5.23;;;;;;;29.96;40.02;99840.44;10517101;28;20056;-74
2021/06/18 08:47:42;;;;;;;5.80;5.20;;;;;;;30.16;40.66;99847.19;10480671;28;20606;-75
2021/06/18 08:52:45;;;;;;;5.87;5.37;;;;;;;30.36;40.64;99849.25;10477350;28;20136;-73
2021/06/18 08:57:52;;;;;;;5.80;5.30;;;;;;;30.51;40.25;99848.56;10477330;28;20052;-76
2021/06/18 09:02:55;;;;;;;6.13;5.20;;;;;;;30.88;39.82;99841.31;10476488;28;20094;-74
2021/06/18 09:08:01;;;;;;;7.82;5.20;;;;;;;31.26;39.18;99851.09;10478444;28;20121;-74
2021/06/18 09:13:16;;;;;;;7.15;5.15;;;;;;;31.54;37.89;99858.03;10475605;28;20584;-72
2021/06/18 09:18:25;;;;;;;6.15;5.10;;;;;;;31.51;38.45;99857.72;10475812;28;20398;-74
2021/06/18 09:23:32;;;;;;;5.90;5.40;;;;;;;31.87;37.28;99855.88;10484333;28;20060;-73
2021/06/18 09:28:33;;;;;;;8.30;5.15;;;;;;;32.23;37.74;99855.06;10471578;28;20147;-73
2021/06/18 09:33:42;;;;;;;8.40;5.72;;;;;;;32.45;36.92;99842.91;10476407;28;20052;-74
2021/06/18 09:38:51;;;;;;;6.25;5.38;;;;;;;32.83;37.20;99843.34;10480688;28;20125;-74
2021/06/18 09:43:57;;;;;;;5.38;4.88;;;;;;;33.20;35.50;99836.59;10486921;28;20068;-73
2021/06/18 09:48:58;;;;;;;6.72;5.78;;;;;;;33.34;35.30;99839.53;10478765;28;20055;-73
2021/06/18 09:54:17;;;;;;;6.35;5.20;;;;;;;33.49;36.34;99831.16;10480802;28;20144;-74
2021/06/18 09:59:23;;;;;;;6.85;6.18;;;;;;;33.69;35.54;99832.97;10473859;28;20044;-75
2021/06/18 10:04:25;;;;;;;6.38;5.88;;;;;;;34.12;34.71;99830.38;10485555;28;20056;-73
2021/06/18 10:09:26;;;;;;;7.00;6.15;;;;;;;34.14;35.46;99833.69;10480510;28;20100;-74
2021/06/18 10:14:28;;;;;;;;;;;;;;;34.59;34.60;99821.63;10478290;28;20536;-75
2021/06/18 10:19:32;;;;;;;4.80;4.40;;;;;;;34.76;34.56;99821.16;10471943;28;19926;-74
2021/06/18 10:24:42;;;;;;;5.40;4.90;;;;;;;35.02;33.80;99819.72;10476388;28;20058;-74
2021/06/18 10:29:45;;;;;;;5.43;4.93;;;;;;;35.38;32.51;99821.19;10486442;28;20059;-74
2021/06/18 10:34:46;;;;;;;5.60;5.10;;;;;;;35.35;33.14;99816.25;10498550;28;20051;-76
2021/06/18 10:40:05;;;;;;;5.97;4.95;;;;;;;35.13;33.08;99812.13;10478940;28;20036;-75
2021/06/18 10:45:07;;;;;;;5.05;4.55;;;;;;;34.70;33.19;99803.81;10476695;28;20472;-74
2021/06/18 10:50:08;;;;;;;5.53;5.03;;;;;;;34.99;33.69;99797.38;10476907;28;20400;-75
2021/06/18 10:55:11;;;;;;;7.93;4.85;;;;;;;35.58;32.75;99797.91;10473153;28;20040;-76
2021/06/18 11:00:25;;;;;;;5.28;4.75;;;;;;;35.80;32.12;99797.28;10474343;28;20139;-75
2021/06/18 11:05:36;;;;;;;6.50;4.88;;;;;;;36.11;31.45;99791.22;10470950;28;20507;-75
2021/06/18 11:10:38;;;;;;;5.63;4.57;;;;;;;36.42;30.90;99787.84;10476244;28;20131;-76
2021/06/18 11:15:42;;;;;;;4.53;4.13;;;;;;;36.70;26.91;99776.75;10470426;28;20135;-76
2021/06/18 11:20:46;;;;;;;4.25;3.63;;;;;;;36.80;27.69;99782.13;10472674;28;20044;-74
2021/06/18 11:26:02;;;;;;;4.18;3.88;;;;;;;36.62;28.14;99781.09;10474244;28;20091;-77
2021/06/18 11:31:27;;;;;;;4.80;4.22;;;;;;;36.81;27.95;99769.88;10477826;28;20040;-75
2021/06/18 11:36:33;;;;;;;4.38;3.97;;;;;;;37.06;27.32;99765.72;10478513;28;20045;-77
2021/06/18 11:41:42;;;;;;;5.22;4.22;;;;;;;37.13;27.22;99774.44;10461968;28;20049;-77
2021/06/18 11:46:44;;;;;;;4.50;3.80;;;;;;;37.32;26.98;99771.53;10470171;28;20132;-77
2021/06/18 11:51:51;;;;;;;5.30;4.45;;;;;;;37.23;26.46;99772.53;10475372;28;20433;-77
2021/06/18 11:56:58;;;;;;;4.80;4.20;;;;;;;37.48;24.89;99763.63;10472551;28;20134;-76
2021/06/18 12:02:21;;;;;;;4.20;3.80;;;;;;;37.26;25.01;99758.91;10481141;28;20040;-74
2021/06/18 12:07:31;;;;;;;4.93;4.63;;;;;;;37.50;24.58;99755.81;10483716;28;20167;-75
2021/06/18 12:12:44;;;;;;;6.55;4.68;;;;;;;37.45;24.91;99755.13;10486395;28;20051;-76
2021/06/18 12:17:51;;;;;;;4.85;4.45;;;;;;;37.22;24.66;99749.53;10479899;28;20476;-76
2021/06/18 12:22:52;;;;;;;4.53;4.15;;;;;;;37.04;24.04;99753.28;10472046;28;20576;-75
2021/06/18 12:28:00;;;;;;;5.95;4.05;;;;;;;36.72;24.49;99742.06;10472868;28;20054;-74
2021/06/18 12:33:04;;;;;;;4.47;4.10;;;;;;;36.51;25.34;99741.66;10473055;28;20044;-76
2021/06/18 12:38:13;;;;;;;4.75;4.30;;;;;;;36.44;25.33;99742.09;10474007;28;20048;-75
2021/06/18 12:43:16;;;;;;;5.78;4.13;;;;;;;36.24;23.98;99746.06;10476069;28;20058;-74
2021/06/18 12:48:20;;;;;;;6.53;5.15;;;;;;;36.09;23.80;99751.91;10477369;28;20060;-80
2021/06/18 12:53:40;;;;;;;6.05;3.92;;;;;;;35.53;24.21;99751.75;10478708;28;20136;-75
2021/06/18 12:58:42;;;;;;;5.13;3.53;;;;;;;35.36;25.08;99732.16;10477693;28;20113;-77
2021/06/18 13:03:44;;;;;;;3.92;3.42;;;;;;;35.53;24.70;99735.16;10472265;28;20067;-75
2021/06/18 13:08:59;;;;;;;6.47;3.63;;;;;;;35.78;23.84;99741.41;10456053;28;20094;-74
2021/06/18 13:14:20;;;;;;;4.20;3.25;;;;;;;36.04;23.70;99743.69;10458840;28;20101;-72
2021/06/18 13:19:37;;;;;;;4.88;3.00;;;;;;;36.23;23.22;99730.56;10471313;28;20114;-72
2021/06/18 13:24:49;;;;;;;4.15;3.20;;;;;;;36.38;22.42;99725.91;10472026;28;20143;-73
2021/06/18 13:29:57;;;;;;;4.30;3.75;;;;;;;36.54;22.48;99729.97;10475058;28;20735;-73
2021/06/18 13:35:12;;;;;;;4.30;2.92;;;;;;;36.37;22.40;99724.25;10473084;28;20123;-72
2021/06/18 13:40:46;;;;;;;5.20;3.55;;;;;;;36.11;23.86;99716.44;10468190;28;20055;-75
2021/06/18 13:45:48;;;;;;;4.72;3.60;;;;;;;36.07;23.97;99704.31;10473229;28;20041;-74
2021/06/18 13:50:53;;;;;;;4.40;4.00;;;;;;;36.03;24.08;99712.44;10476218;28;20040;-72
2021/06/18 13:55:55;;;;;;;3.83;3.40;;;;;;;36.08;25.07;99705.97;10473212;28;20164;-73
2021/06/18 14:01:00;;;;;;;5.18;4.20;;;;;;;36.02;24.15;99696.13;10467161;28;20087;-73
2021/06/18 14:06:02;;;;;;;4.50;3.47;;;;;;;35.77;24.19;99712.06;10474229;28;20057;-73
2021/06/18 14:11:04;;;;;;;4.88;3.72;;;;;;;35.56;24.69;99706.88;10469852;28;20064;-72
2021/06/18 14:16:06;;;;;;;4.35;3.83;;;;;;;35.53;25.44;99704.72;10465916;28;20150;-72
2021/06/18 14:21:07;;;;;;;6.20;4.10;;;;;;;35.75;24.68;99703.25;10468100;28;20055;-73
2021/06/18 14:26:09;;;;;;;5.43;3.53;;;;;;;35.70;24.83;99692.25;10467691;28;20515;-74
2021/06/18 14:31:10;;;;;;;3.78;3.45;;;;;;;35.64;24.43;99696.25;10465635;28;20044;-71
2021/06/18 14:36:12;;;;;;;4.50;4.10;;;;;;;35.65;24.86;99693.16;10473796;28;20136;-73
2021/06/18 14:41:13;;;;;;;4.65;3.55;;;;;;;35.66;24.94;99691.25;10460566;28;20044;-71
2021/06/18 14:46:15;;;;;;;4.50;3.80;;;;;;;35.84;24.90;99684.81;10462726;28;20048;-74
2021/06/18 14:51:17;;;;;;;4.85;3.78;;;;;;;35.73;25.02;99681.41;10471270;28;20081;-75
2021/06/18 14:56:23;;;;;;;7.55;3.97;;;;;;;35.83;24.77;99688.72;10467208;28;20551;-74
2021/06/18 15:01:24;;;;;;;3.58;3.28;;;;;;;35.71;25.20;99672.56;10470144;28;20100;-73
2021/06/18 15:06:26;;;;;;;4.22;3.83;;;;;;;35.69;25.13;99674.03;10468657;28;20052;-72
2021/06/18 15:11:27;;;;;;;4.60;3.58;;;;;;;35.62;24.65;99676.38;10472666;28;20055;-72
2021/06/18 15:16:29;;;;;;;4.00;3.70;;;;;;;35.53;25.10;99656.88;10478065;28;20147;-73
2021/06/18 15:21:31;;;;;;;3.83;3.45;;;;;;;35.48;25.18;99657.78;10467474;28;20142;-73
2021/06/18 15:26:32;;;;;;;5.07;4.53;;;;;;;35.39;25.48;99651.31;10468979;28;20160;-72
2021/06/18 15:31:34;;;;;;;4.82;3.80;;;;;;;35.21;26.06;99639.16;10470662;28;20068;-72
2021/06/18 15:36:40;;;;;;;6.15;4.60;;;;;;;35.05;26.05;99644.13;10465328;28;20132;-72
2021/06/18 15:41:42;;;;;;;3.60;3.30;;;;;;;34.86;26.17;99647.75;10479546;28;20178;-74
2021/06/18 15:46:46;;;;;;;5.60;4.47;;;;;;;34.73;26.64;99639.34;10470845;28;20054;-74
2021/06/18 15:51:47;;;;;;;4.18;3.78;;;;;;;34.59;26.63;99633.75;10482790;28;20152;-80
2021/06/18 15:56:50;;;;;;;6.15;4.20;;;;;;;34.49;26.89;99641.06;10477002;28;20570;-75
2021/06/18 16:01:51;;;;;;;4.18;3.83;;;;;;;34.37;27.40;99642.63;10467753;28;20494;-74
2021/06/18 16:06:53;;;;;;;4.60;4.30;;;;;;;34.23;27.75;99634.22;10490073;28;20040;-73
2021/06/18 16:11:55;;;;;;;5.80;4.40;;;;;;;34.25;27.95;99634.75;10490814;28;20127;-74
2021/06/18 16:16:59;;;;;;;5.25;4.13;;;;;;;34.27;28.14;99635.31;10491734;28;20068;-71
2021/06/18 16:22:03;;;;;;;5.95;4.30;;;;;;;34.24;28.50;99641.38;10478553;28;20059;-77
2021/06/18 16:27:06;;;;;;;5.20;4.60;;;;;;;34.15;28.44;99650.31;10479297;28;20159;-72
2021/06/18 16:32:08;;;;;;;5.28;3.90;;;;;;;34.09;28.43;99642.41;10481665;28;20076;-74
2021/06/18 16:37:09;;;;;;;4.75;4.35;;;;;;;34.14;28.20;99645.94;10474328;28;20055;-73
2021/06/18 16:42:11;;;;;;;5.95;4.22;;;;;;;34.06;27.97;99637.47;10472379;28;20055;-75
2021/06/18 16:47:12;;;;;;;;;;;;;;;33.99;28.69;99643.38;10474028;28;20044;-73
2021/06/18 16:52:13;;;;;;;7.20;4.83;;;;;;;33.92;28.93;99637.38;10474820;28;20370;-75
2021/06/18 16:57:15;;;;;;;5.35;4.82;;;;;;;33.86;29.23;99638.56;10472732;28;20106;-74
2021/06/18 17:02:16;;;;;;;;;;;;;;;33.86;29.80;99638.56;10479187;28;20487;-74
2021/06/18 17:07:21;;;;;;;5.97;5.43;;;;;;;33.79;30.00;99639.69;10474320;28;19991;-73
2021/06/18 17:12:34;;;;;;;6.25;5.65;;;;;;;33.75;29.90;99638.66;10472911;28;20286;-75
2021/06/18 17:17:38;;;;;;;7.00;4.80;;;;;;;33.73;29.29;99632.59;10478672;28;20040;-74
2021/06/18 17:22:40;;;;;;;6.43;5.60;;;;;;;33.58;29.76;99635.50;10485625;28;20064;-76
2021/06/18 17:27:42;;;;;;;6.50;5.40;;;;;;;33.40;30.76;99635.13;10471214;28;20139;-73
2021/06/18 17:32:43;;;;;;;6.68;5.93;;;;;;;33.22;31.13;99642.19;10479431;28;20417;-73
2021/06/18 17:37:45;;;;;;;5.82;5.32;;;;;;;33.15;31.74;99643.59;10473889;28;20464;-71
2021/06/18 17:42:46;;;;;;;6.18;5.65;;;;;;;33.08;31.97;99649.44;10483397;28;20094;-72
2021/06/18 17:47:48;;;;;;;6.43;5.82;;;;;;;32.99;32.21;99654.75;10473474;28;20137;-72
2021/06/18 17:52:49;;;;;;;7.45;6.13;;;;;;;32.89;32.60;99649.31;10470257;28;20577;-74
2021/06/18 17:57:51;;;;;;;7.72;5.63;;;;;;;32.81;32.50;99652.69;10474252;28;20143;-72
2021/06/18 18:02:52;;;;;;;6.47;5.97;;;;;;;32.69;32.94;99675.91;10463136;28;20609;-73
2021/06/18 18:07:54;;;;;;;;;;;;;;;32.64;33.42;99669.56;10466489;28;20415;-72
2021/06/18 18:12:59;;;;;;;6.77;6.17;;;;;;;32.56;33.70;99682.00;10462956;28;20394;-72
2021/06/18 18:18:00;;;;;;;8.07;6.30;;;;;;;32.47;34.48;99683.69;10469934;28;20063;-72
2021/06/18 18:23:02;;;;;;;8.95;6.18;;;;;;;32.42;34.42;99685.38;10465844;28;20518;-73
2021/06/18 18:28:04;;;;;;;7.30;6.53;;;;;;;32.36;34.25;99681.00;10471074;28;20068;-69
2021/06/18 18:33:06;;;;;;;7.75;6.50;;;;;;;32.31;34.61;99678.28;10469684;28;20055;-72
2021/06/18 18:38:07;;;;;;;8.98;7.55;;;;;;;32.32;34.49;99681.84;10468018;28;20058;-72
2021/06/18 18:43:09;;;;;;;8.35;7.65;;;;;;;32.28;35.13;99667.84;10465317;28;20125;-74
2021/06/18 18:48:11;;;;;;;6.97;6.25;;;;;;;32.21;35.42;99672.81;10468631;28;20117;-73
2021/06/18 18:53:12;;;;;;;;;;;;;;;32.17;35.55;99671.72;10471347;28;20076;-74
2021/06/18 18:58:17;;;;;;;8.83;7.90;;;;;;;32.12;35.84;99674.50;10489433;28;19920;-72
2021/06/18 19:03:19;;;;;;;8.55;7.75;;;;;;;32.07;35.97;99684.38;10485906;28;20040;-71
2021/06/18 19:08:20;;;;;;;;;;;;;;;32.01;36.36;99690.22;10460173;28;20064;-75
2021/06/18 19:13:22;;;;;;;8.27;7.57;;;;;;;31.89;36.34;99687.75;10462336;28;19925;-74
2021/06/18 19:18:23;;;;;;;9.98;8.15;;;;;;;31.83;36.55;99695.19;10470349;28;20053;-73
2021/06/18 19:23:25;;;;;;;8.02;7.20;;;;;;;31.74;36.41;99691.38;10472705;28;20060;-72
2021/06/18 19:28:26;;;;;;;9.25;8.20;;;;;;;31.66;36.60;99692.75;10469284;28;20068;-72
2021/06/18 19:33:27;;;;;;;8.70;7.90;;;;;;;31.56;36.65;99695.50;10466335;28;20052;-70
2021/06/18 19:38:29;;;;;;;8.32;7.57;;;;;;;31.47;37.06;99697.97;10467801;28;20139;-72
2021/06/18 19:43:31;;;;;;;10.20;7.55;;;;;;;31.40;37.67;99697.41;10469461;28;20048;-72
2021/06/18 19:48:34;;;;;;;8.88;7.57;;;;;;;31.29;38.15;99695.78;10474089;28;20136;-72
2021/06/18 19:53:35;;;;;;;9.60;7.93;;;;;;;31.12;38.35;99685.03;10491409;28;20057;-75
2021/06/18 19:58:36;;;;;;;10.10;8.63;;;;;;;30.92;39.01;99689.38;10490613;28;20509;-73
2021/06/18 20:03:38;;;;;;;9.30;8.35;;;;;;;30.82;39.49;99701.19;10477661;28;20064;-71
2021/06/18 20:08:42;;;;;;;9.40;8.50;;;;;;;30.85;39.94;99721.78;10480227;28;20069;-71
2021/06/18 20:13:44;;;;;;;8.82;7.88;;;;;;;30.81;39.98;99723.44;10484209;28;20040;-72
2021/06/18 20:18:46;;;;;;;9.43;7.95;;;;;;;30.77;40.52;99741.53;10482107;28;20076;-73
2021/06/18 20:23:47;;;;;;;10.60;9.20;;;;;;;30.68;40.75;99750.28;10491760;28;20056;-72
2021/06/18 20:28:49;;;;;;;10.43;9.38;;;;;;;30.64;40.79;99749.19;10479488;28;20045;-72
2021/06/18 20:33:51;;;;;;;9.50;8.52;;;;;;;30.55;41.61;99741.75;10477512;28;20131;-72
2021/06/18 20:38:53;;;;;;;10.25;9.32;;;;;;;30.49;42.01;99743.63;10469814;28;20176;-72
2021/06/18 20:43:55;;;;;;;11.68;10.13;;;;;;;30.39;42.76;99751.81;10476899;28;20130;-72
2021/06/18 20:48:56;;;;;;;12.05;9.82;;;;;;;30.33;42.71;99757.25;10471960;28;20140;-73
2021/06/18 20:53:59;;;;;;;11.17;10.23;;;;;;;30.25;42.83;99777.00;10474932;28;20967;-71
2021/06/18 20:59:00;;;;;;;10.68;9.55;;;;;;;30.21;43.16;99789.59;10450619;28;20047;-73
2021/06/18 21:04:02;;;;;;;11.07;9.77;;;;;;;30.15;43.03;99804.38;10465519;28;20044;-71
2021/06/18 21:09:04;;;;;;;10.82;9.32;;;;;;;30.10;43.11;99810.66;10477094;28;20477;-74
2021/06/18 21:14:05;;;;;;;12.43;11.10;;;;;;;30.08;43.81;99810.06;10466654;28;20558;-72
2021/06/18 21:19:07;;;;;;;12.60;11.40;;;;;;;30.08;43.69;99825.72;10472006;28;20044;-71
2021/06/18 21:24:08;;;;;;;13.13;11.90;;;;;;;30.01;44.09;99825.97;10472827;28;20126;-72
2021/06/18 21:29:10;;;;;;;11.80;10.60;;;;;;;29.94;45.22;99828.09;10476037;28;20090;-72
2021/06/18 21:34:11;;;;;;;13.57;10.43;;;;;;;29.78;46.39;99868.25;10487062;28;20100;-72
2021/06/18 21:39:13;;;;;;;8.27;7.47;;;;;;;29.31;46.44;99841.47;10468579;28;20769;-71
2021/06/18 21:44:14;;;;;;;9.47;6.83;;;;;;;29.22;45.56;99825.47;10473114;28;20115;-72
2021/06/18 21:49:17;;;;;;;7.83;6.13;;;;;;;29.16;44.87;99823.75;10472406;28;20566;-72
2021/06/18 21:54:18;;;;;;;;;;;;;;;29.07;45.35;99823.38;10472451;28;20068;-71
2021/06/18 21:59:19;;;;;;;10.63;5.22;;;;;;;29.00;45.26;99835.59;10471012;28;20015;-71
2021/06/18 22:04:21;;;;;;;11.88;5.50;;;;;;;28.80;45.03;99836.19;10474490;28;20080;-72
2021/06/18 22:09:23;;;;;;;10.93;6.00;;;;;;;28.75;44.49;99831.47;10466558;28;20503;-73
2021/06/18 22:14:24;;;;;;;9.57;4.37;;;;;;;28.65;41.92;99818.47;10467263;28;20076;-74
2021/06/18 22:19:27;;;;;;;6.88;5.15;;;;;;;28.57;44.02;99818.91;10465089;28;21230;-74
2021/06/18 22:24:29;;;;;;;7.22;4.45;;;;;;;28.55;44.38;99816.41;10450649;28;20135;-76
2021/06/18 22:29:30;;;;;;;7.53;4.82;;;;;;;28.54;44.37;99816.66;10445868;28;20148;-75
2021/06/18 22:34:32;;;;;;;9.63;5.20;;;;;;;28.45;44.81;99832.69;10442472;28;20486;-75
2021/06/18 22:39:33;;;;;;;7.57;4.63;;;;;;;28.29;45.15;99822.59;10453698;28;20574;-74
2021/06/18 22:44:35;;;;;;;10.57;4.90;;;;;;;28.12;45.74;99817.13;10456285;28;20523;-73
2021/06/18 22:49:36;;;;;;;9.60;5.00;;;;;;;28.06;45.88;99850.97;10457550;28;20297;-75
2021/06/18 22:54:43;;;;;;;7.60;4.70;;;;;;;27.98;45.61;99866.75;10454087;28;20082;-75
2021/06/18 22:59:47;;;;;;;5.72;4.22;;;;;;;27.93;45.72;99852.09;10456201;28;20140;-75
2021/06/18 23:04:48;;;;;;;7.07;4.70;;;;;;;27.93;45.76;99852.94;10453274;28;20131;-74
2021/06/18 23:09:50;;;;;;;11.18;4.80;;;;;;;27.89;46.23;99859.16;10455898;28;20065;-76
2021/06/18 23:14:51;;;;;;;8.80;4.75;;;;;;;27.77;46.56;99851.00;10458294;28;20167;-74
2021/06/18 23:19:52;;;;;;;9.10;5.10;;;;;;;27.70;46.82;99864.84;10456726;28;20110;-75
2021/06/18 23:24:54;;;;;;;9.90;4.95;;;;;;;27.70;47.16;99859.38;10459066;28;20155;-70
2021/06/18 23:29:56;;;;;;;12.38;5.65;;;;;;;27.62;47.74;99873.44;10464190;28;20049;-74
2021/06/18 23:34:57;;;;;;;7.50;5.28;;;;;;;27.55;48.40;99859.94;10453386;28;20045;-75